Mouthcard, KY (41548)

7:48 PM EDT on July 25, 2014 (GMT -0400)
Sookeys Creek (KKYKENTU2) Elev 850 ft | 37.40 °N, 82.54 °W | Change Station

Current weather conditions updated 2 minutes ago

Clear
Clear
68.0 °F
Feels Like 68.0 °F
N
0.0
Wind Variable Wind from North
Gusts 1.6 mph

Tomorrow is forecast to be nearly the same temperature as today. Thunderstorms developing late tomorrow night.

Today
High -- | Low -- °F
--% Chance of Precip.
Yesterday
High -- | Low -- °F
Precip. -- in
6:27 AM 8:43 PM
Waning Crescent, 1% visible
Pressure 30.12 in
Visibility 10.0 miles
Clouds Clear
Dew Point 65 °F
Humidity 90%
Rainfall 0.00 in
Snow Depth Not available.
UV 1 out of 12
Pollen 3.80 out of 12
Air Quality Not available.
Flu Activity Not available.
METAR KLNP 252335Z AUTO 03004KT 10SM CLR 22/16 A3012 RMK AO2

More Conditions Fewer Conditions

Pressure 30.12 in
Visibility 10.0 miles
Clouds Clear
Dew Point 65 °F
Humidity 90%
Rainfall 0.00 in
Snow Depth Not available.
UV 1 out of 12
Pollen 3.80 out of 12
Air Quality Not available.
Flu Activity Not available.
METAR KLNP 252335Z AUTO 03004KT 10SM CLR 22/16 A3012 RMK AO2

More Conditions Fewer Conditions

10-Day Weather Forecast

Almanac

Astronomy

Jul. 25, 2014 Rise Set
Actual Time 6:27 AM EDT 8:43 PM EDT
Civil Twilight 5:58 AM EDT 9:12 PM EDT
Nautical Twilight 5:22 AM EDT 9:48 PM EDT
Astronomical Twilight 4:42 AM EDT 10:27 PM EDT
Moon 5:25 AM EDT 7:40 PM EDT
Length of Visible Light 15h 14m
Length of Day
14h 15m
Tomorrow will be 1m 36s shorter.
Waning Crescent, 1% of the Moon is Illuminated
Today
Waning Crescent
Jul 26
New
Aug 3
First Quarter
Aug 10
Full
Aug 17
Last Quarter

Today's Extremes

State Highs State Lows

Community

WunderPhotos

Upload Photos

1,737,450 photos uploaded!

Nearby

Snow Depth

Station Depth Elevation
No new snow has been reported.

Earthquake Activity

City Distance Mag. Time & Date
No recent earthquake activity has been reported nearby.
Minimum magnitude displayed is 2.5.

Coastal Water Temperatures

Place Temperature
No Stations Reporting

Nearby Weather Stations

Station Location Temp. Heat Index Dew Point Humidity Wind Precip. Elev Updated Type
Sookeys Creek, Kentucky, KY 68.0 °F - 65 °F 90% North  at  0.0 mph 0.00 in / hr 850 ft 7:46 PM EDT Normal
Ramey Flats, Clintwood, VA 71.3 °F 72 °F 65 °F 80% NNE  at  1.0 mph 0.00 in / hr 1795 ft 7:34 PM EDT Normal
East Kentucky Broadcasting, Pikeville, KY 75.9 °F 78 °F 60 °F 58% SSW  at  0.0 mph 0.00 in / hr 686 ft 7:48 PM EDT Rapid Fire
Pikeville Medical Center, Pikeville, KY 78.5 °F 80 °F 62 °F 57% North  at  1.0 mph 0.00 in / hr 683 ft 7:45 PM EDT Normal
Ratliff Creek, Pikeville, KY 70.9 °F 72 °F 64 °F 79% North  at  0.0 mph 0.00 in / hr 699 ft 7:45 PM EDT Normal
Quail Ridge, Pikeville, KY 75.2 °F 77 °F 64 °F 67% West  at  2.0 mph 0.00 in / hr 778 ft 7:48 PM EDT Rapid Fire
West Williamson, WV, Williamson, WV 80.1 °F 82 °F 65 °F 60% WNW  at  0.0 mph 0.00 in / hr 682 ft 7:48 PM EDT Rapid Fire

Show More Stations Show Fewer Stations